createdAt,value
2018-04-17T00:00:52.202Z,8.80
2018-04-17T00:03:18.411Z,9.70
2018-04-17T00:05:45.154Z,8.90
2018-04-17T00:08:11.372Z,9.07
2018-04-17T00:10:37.637Z,10.57
2018-04-17T00:13:03.857Z,9.80
2018-04-17T00:15:30.131Z,9.05
2018-04-17T00:17:56.350Z,8.55
2018-04-17T00:20:22.633Z,8.68
2018-04-17T00:22:48.902Z,8.82
2018-04-17T00:25:15.497Z,8.00
2018-04-17T00:27:42.721Z,9.55
2018-04-17T00:30:08.993Z,9.25
2018-04-17T00:32:35.212Z,8.65
2018-04-17T00:35:01.417Z,8.10
2018-04-17T00:37:27.632Z,8.05
2018-04-17T00:39:53.850Z,8.70
2018-04-17T00:42:20.052Z,7.72
2018-04-17T00:44:46.287Z,8.23
2018-04-17T00:47:12.893Z,7.78
2018-04-17T00:49:39.108Z,9.32
2018-04-17T00:52:06.327Z,8.13
2018-04-17T00:54:33.529Z,8.88
2018-04-17T00:57:06.709Z,9.50
2018-04-17T00:59:32.953Z,9.85
2018-04-17T01:01:59.204Z,9.55
2018-04-17T01:04:26.623Z,9.65
2018-04-17T01:06:53.614Z,10.15
2018-04-17T01:09:19.835Z,9.70
2018-04-17T01:11:46.057Z,9.52
2018-04-17T01:14:12.304Z,9.30
2018-04-17T01:16:38.552Z,8.35
2018-04-17T01:19:04.765Z,9.98
2018-04-17T01:21:31.009Z,9.70
2018-04-17T01:23:57.213Z,9.05
2018-04-17T01:26:23.488Z,9.07
2018-04-17T01:28:49.707Z,9.60
2018-04-17T01:31:15.929Z,8.93
2018-04-17T01:33:42.125Z,9.30
2018-04-17T01:36:08.352Z,8.65
2018-04-17T01:38:34.577Z,9.35
2018-04-17T01:41:00.828Z,9.18
2018-04-17T01:43:27.052Z,8.73
2018-04-17T01:45:53.284Z,9.30
2018-04-17T01:48:19.516Z,8.60
2018-04-17T01:50:45.747Z,8.57
2018-04-17T01:53:12.012Z,9.15
2018-04-17T01:55:38.232Z,9.40
2018-04-17T01:58:04.439Z,10.30
2018-04-17T02:00:30.679Z,11.32
2018-04-17T02:02:56.896Z,10.90
2018-04-17T02:05:23.135Z,8.45
2018-04-17T02:07:49.389Z,8.13
2018-04-17T02:10:15.602Z,7.75
2018-04-17T02:12:41.811Z,7.90
2018-04-17T02:15:08.079Z,8.48
2018-04-17T02:17:34.704Z,9.10
2018-04-17T02:20:00.928Z,7.97
2018-04-17T02:22:27.157Z,8.55
2018-04-17T02:24:53.384Z,7.93
2018-04-17T02:27:19.617Z,8.75
2018-04-17T02:29:45.840Z,8.50
2018-04-17T02:32:12.053Z,10.02
2018-04-17T02:34:38.261Z,9.48
2018-04-17T02:37:04.485Z,8.52
2018-04-17T02:39:30.747Z,8.43
2018-04-17T02:41:56.956Z,8.40
2018-04-17T02:44:23.177Z,8.88
2018-04-17T02:46:49.404Z,8.35
2018-04-17T02:49:15.599Z,8.23
2018-04-17T02:51:41.817Z,8.63
2018-04-17T02:54:08.048Z,8.15
2018-04-17T02:56:34.663Z,7.80
2018-04-17T02:59:00.912Z,8.35
2018-04-17T03:01:27.124Z,9.10
2018-04-17T03:03:53.343Z,9.35
2018-04-17T03:06:19.547Z,8.98
2018-04-17T03:08:45.774Z,9.65
2018-04-17T03:11:12.004Z,9.60
2018-04-17T03:13:38.271Z,9.70
2018-04-17T03:16:04.585Z,9.35
2018-04-17T03:18:30.866Z,9.73
2018-04-17T03:20:57.120Z,10.55
2018-04-17T03:23:23.397Z,10.55
2018-04-17T03:25:49.632Z,10.60
2018-04-17T03:28:15.804Z,9.18
2018-04-17T03:30:42.047Z,9.20
2018-04-17T03:33:08.285Z,9.98
2018-04-17T03:35:34.505Z,9.25
2018-04-17T03:38:00.753Z,9.60
2018-04-17T03:40:26.968Z,8.90
2018-04-17T03:42:53.206Z,9.38
2018-04-17T03:45:19.433Z,8.98
2018-04-17T03:47:45.638Z,8.93
2018-04-17T03:50:11.852Z,9.70
2018-04-17T03:52:38.098Z,9.40
2018-04-17T03:55:04.348Z,9.93
2018-04-17T03:57:30.579Z,8.30
2018-04-17T03:59:57.196Z,9.15
2018-04-17T04:02:23.445Z,9.50
2018-04-17T04:04:50.851Z,9.05
2018-04-17T04:07:17.094Z,9.63
2018-04-17T04:09:43.303Z,9.82
2018-04-17T04:12:09.511Z,8.48
2018-04-17T04:14:35.761Z,9.32
2018-04-17T04:17:14.149Z,8.85
2018-04-17T04:19:52.494Z,10.75
2018-04-17T04:22:42.557Z,9.98
2018-04-17T04:25:22.675Z,12.90
2018-04-17T04:27:49.323Z,13.45
2018-04-17T04:30:15.902Z,13.82
2018-04-17T04:32:42.140Z,13.75
2018-04-17T04:35:08.337Z,14.07
2018-04-17T04:37:34.557Z,11.50
2018-04-17T04:40:00.807Z,11.23
2018-04-17T04:42:27.026Z,11.63
2018-04-17T04:44:53.233Z,12.05
2018-04-17T04:47:19.492Z,11.18
2018-04-17T04:49:46.524Z,12.02
2018-04-17T04:52:12.793Z,12.15
2018-04-17T04:54:38.987Z,12.82
2018-04-17T04:57:05.949Z,12.23
2018-04-17T04:59:32.190Z,11.63
2018-04-17T05:01:58.420Z,11.48
2018-04-17T05:04:24.624Z,12.57
2018-04-17T05:06:50.872Z,11.75
2018-04-17T05:09:17.178Z,11.20
2018-04-17T05:11:43.423Z,11.77
2018-04-17T05:14:09.762Z,10.93
2018-04-17T05:16:36.028Z,12.50
2018-04-17T05:19:02.665Z,12.30
2018-04-17T05:21:28.898Z,12.63
2018-04-17T05:23:55.157Z,12.50
2018-04-17T05:26:21.396Z,13.13
2018-04-17T05:28:47.682Z,10.80
2018-04-17T05:31:14.280Z,11.38
2018-04-17T05:33:40.530Z,13.07
2018-04-17T05:36:06.793Z,12.30
2018-04-17T05:38:33.032Z,14.07
2018-04-17T05:40:59.257Z,14.10
2018-04-17T05:43:25.481Z,12.88
2018-04-17T05:45:51.714Z,15.02
2018-04-17T05:48:17.947Z,13.20
2018-04-17T05:50:44.201Z,14.82
2018-04-17T05:53:10.668Z,13.98
2018-04-17T05:55:36.934Z,15.48
2018-04-17T05:58:03.188Z,14.30
2018-04-17T06:00:30.184Z,14.65
2018-04-17T06:02:56.393Z,14.70
2018-04-17T06:05:22.687Z,14.93
2018-04-17T06:07:48.900Z,16.20
2018-04-17T06:10:15.128Z,14.63
2018-04-17T06:12:41.366Z,14.93
2018-04-17T06:15:07.616Z,15.75
2018-04-17T06:17:33.868Z,15.73
2018-04-17T06:20:00.496Z,18.15
2018-04-17T06:22:27.472Z,15.88
2018-04-17T06:24:53.738Z,14.80
2018-04-17T06:27:20.039Z,15.48
2018-04-17T06:29:46.255Z,16.87
2018-04-17T06:32:13.001Z,16.27
2018-04-17T06:34:39.257Z,16.50
2018-04-17T06:37:05.562Z,17.20
2018-04-17T06:39:31.795Z,15.85
2018-04-17T06:41:58.106Z,14.30
2018-04-17T06:44:24.413Z,15.10
2018-04-17T06:46:50.615Z,14.77
2018-04-17T06:49:16.893Z,13.60
2018-04-17T06:51:43.536Z,12.82
2018-04-17T06:54:09.718Z,12.35
2018-04-17T06:56:35.985Z,12.43
2018-04-17T06:59:02.604Z,13.02
2018-04-17T07:01:29.760Z,11.98
2018-04-17T07:03:55.997Z,11.85
2018-04-17T07:06:22.242Z,13.10
2018-04-17T07:08:48.491Z,12.82
2018-04-17T07:11:14.763Z,12.95
2018-04-17T07:13:41.000Z,14.13
2018-04-17T07:16:07.243Z,13.57
2018-04-17T07:18:33.901Z,13.52
2018-04-17T07:21:00.136Z,16.98
2018-04-17T07:23:26.377Z,16.30
2018-04-17T07:25:52.638Z,17.85
2018-04-17T07:28:18.882Z,17.40
2018-04-17T07:30:45.163Z,19.87
2018-04-17T07:33:11.414Z,18.15
2018-04-17T07:35:37.691Z,18.40
2018-04-17T07:38:04.097Z,16.87
2018-04-17T07:40:30.416Z,16.17
2018-04-17T07:42:56.647Z,15.70
2018-04-17T07:45:22.887Z,16.17
2018-04-17T08:01:15.124Z,12.75
2018-04-17T08:03:41.401Z,13.80
2018-04-17T08:06:07.656Z,13.75
2018-04-17T08:08:33.930Z,14.05
2018-04-17T08:11:00.197Z,14.82
2018-04-17T08:13:26.436Z,12.70
2018-04-17T08:15:52.672Z,12.80
2018-04-17T08:18:18.967Z,10.57
2018-04-17T08:20:45.229Z,10.77
2018-04-17T08:23:11.534Z,10.67
2018-04-17T08:25:37.792Z,10.53
2018-04-17T08:28:04.040Z,10.90
2018-04-17T08:30:30.627Z,9.90
2018-04-17T08:32:56.881Z,11.87
2018-04-17T08:35:23.114Z,11.13
2018-04-17T08:37:49.342Z,10.40
2018-04-17T08:40:15.600Z,9.73
2018-04-17T08:42:42.190Z,11.20
2018-04-17T08:45:08.404Z,8.97
2018-04-17T08:47:34.659Z,10.97
2018-04-17T08:50:00.891Z,10.07
2018-04-17T08:52:27.547Z,10.20
2018-04-17T08:54:54.149Z,11.33
2018-04-17T08:57:20.346Z,10.13
2018-04-17T08:59:46.587Z,9.23
2018-04-17T09:02:12.869Z,10.97
2018-04-17T09:04:39.525Z,10.10
2018-04-17T09:07:05.748Z,10.10
2018-04-17T09:09:32.007Z,10.47
2018-04-17T09:11:58.291Z,8.83
2018-04-17T09:14:24.469Z,11.00
2018-04-17T09:16:50.744Z,10.77
2018-04-17T09:19:17.518Z,10.73
2018-04-17T09:21:43.734Z,9.53
2018-04-17T09:24:09.988Z,9.73
2018-04-17T09:26:36.244Z,10.87
2018-04-17T09:29:02.508Z,10.53
2018-04-17T09:31:29.073Z,10.93
2018-04-17T09:33:55.308Z,10.13
2018-04-17T09:36:21.568Z,10.20
2018-04-17T09:38:47.809Z,10.93
2018-04-17T09:41:14.049Z,9.70
2018-04-17T09:43:40.310Z,9.17
2018-04-17T09:46:06.551Z,10.63
2018-04-17T09:48:32.778Z,11.00
2018-04-17T09:50:59.025Z,10.73
2018-04-17T09:53:25.301Z,11.43
2018-04-17T09:55:51.926Z,10.53
2018-04-17T09:58:18.524Z,11.60
2018-04-17T10:00:50.771Z,10.03
2018-04-17T10:03:17.079Z,10.33
2018-04-17T10:05:43.309Z,8.70
2018-04-17T10:08:09.543Z,10.00
2018-04-17T10:10:35.793Z,9.60
2018-04-17T10:13:02.018Z,9.83
2018-04-17T10:15:28.232Z,9.43
2018-04-17T10:17:54.505Z,9.53
2018-04-17T10:20:20.727Z,8.87
2018-04-17T10:22:48.366Z,10.10
2018-04-17T10:25:14.632Z,11.07
2018-04-17T10:27:41.481Z,10.93
2018-04-17T10:30:07.733Z,11.07
2018-04-17T10:32:34.342Z,13.03
2018-04-17T10:35:00.565Z,12.13
2018-04-17T10:37:26.783Z,12.07
2018-04-17T10:39:53.088Z,7.53
2018-04-17T10:42:19.311Z,9.53
2018-04-17T10:44:46.105Z,7.93
2018-04-17T10:47:12.359Z,8.77
2018-04-17T10:49:38.940Z,8.40
2018-04-17T10:52:05.141Z,5.63
2018-04-17T10:54:31.375Z,6.23
2018-04-17T10:56:57.677Z,6.50
2018-04-17T10:59:24.279Z,6.17
2018-04-17T11:01:50.537Z,6.80
2018-04-17T11:04:17.114Z,5.80
2018-04-17T11:06:43.411Z,8.43
2018-04-17T11:09:09.663Z,7.20
2018-04-17T11:11:35.872Z,6.30
2018-04-17T11:14:02.161Z,6.10
2018-04-17T11:16:28.393Z,5.83
2018-04-17T11:18:54.636Z,6.60
2018-04-17T11:21:20.912Z,8.03
2018-04-17T11:23:47.153Z,6.53
2018-04-17T11:26:13.359Z,5.47
2018-04-17T11:28:39.582Z,5.20
2018-04-17T11:31:05.792Z,5.67
2018-04-17T11:33:32.042Z,5.57
2018-04-17T11:35:58.324Z,4.10
2018-04-17T11:38:24.565Z,4.20
2018-04-17T11:40:51.281Z,5.07
2018-04-17T11:43:17.531Z,5.07
2018-04-17T11:45:43.769Z,5.63
2018-04-17T11:48:10.007Z,4.83
2018-04-17T11:50:36.910Z,3.60
2018-04-17T11:53:03.148Z,2.80
2018-04-17T11:55:29.365Z,3.77
2018-04-17T11:57:55.599Z,2.50
2018-04-17T12:00:21.797Z,3.77
2018-04-17T12:02:48.690Z,3.63
2018-04-17T12:05:15.523Z,4.20
2018-04-17T12:07:41.754Z,3.00
2018-04-17T12:10:08.024Z,2.87
2018-04-17T12:12:34.836Z,2.77
2018-04-17T12:15:01.847Z,2.27
2018-04-17T12:17:28.070Z,4.10
2018-04-17T12:19:55.338Z,3.23
2018-04-17T12:22:22.071Z,3.30
2018-04-17T12:24:48.341Z,2.87
2018-04-17T12:27:14.605Z,2.90
2018-04-17T12:29:40.817Z,2.70
2018-04-17T12:32:07.641Z,2.63
2018-04-17T12:34:33.939Z,2.40
2018-04-17T12:37:00.201Z,2.33
2018-04-17T12:39:26.422Z,2.60
2018-04-17T12:41:52.719Z,2.20
2018-04-17T12:44:18.956Z,2.20
2018-04-17T12:46:45.256Z,3.17
2018-04-17T12:49:11.538Z,2.90
2018-04-17T12:51:37.958Z,3.20
2018-04-17T12:54:04.646Z,2.87
2018-04-17T12:56:30.940Z,2.90
2018-04-17T12:58:57.168Z,2.60
2018-04-17T13:01:23.823Z,2.40
2018-04-17T13:03:50.047Z,3.30
2018-04-17T13:06:16.282Z,2.60
2018-04-17T13:08:42.564Z,2.57
2018-04-17T13:11:08.830Z,2.47
2018-04-17T13:13:35.085Z,2.35
2018-04-17T13:16:01.299Z,2.53
2018-04-17T13:18:28.125Z,2.90
2018-04-17T13:20:54.363Z,2.12
2018-04-17T13:23:20.648Z,3.50
2018-04-17T13:25:46.895Z,2.85
2018-04-17T13:28:13.536Z,2.50
2018-04-17T13:30:40.045Z,3.62
2018-04-17T13:33:06.327Z,2.90
2018-04-17T13:35:32.908Z,2.92
2018-04-17T13:38:00.016Z,3.17
2018-04-17T13:40:26.280Z,3.03
2018-04-17T13:42:52.569Z,2.20
2018-04-17T13:45:18.854Z,2.37
2018-04-17T13:47:45.135Z,2.90
2018-04-17T13:50:11.405Z,3.43
2018-04-17T13:52:37.681Z,3.20
2018-04-17T13:55:04.000Z,2.63
2018-04-17T13:57:30.296Z,2.90
2018-04-17T13:59:56.532Z,3.20
2018-04-17T14:02:22.791Z,2.90
2018-04-17T14:04:49.025Z,2.80
2018-04-17T14:07:15.297Z,3.53
2018-04-17T14:09:41.532Z,3.57
2018-04-17T14:12:07.800Z,3.20
2018-04-17T14:14:34.381Z,2.30
2018-04-17T14:17:00.631Z,2.27
2018-04-17T14:19:26.910Z,2.07
2018-04-17T14:21:53.163Z,2.23
2018-04-17T14:24:19.416Z,2.13
2018-04-17T14:26:45.667Z,2.47
2018-04-17T14:29:12.850Z,2.27
2018-04-17T14:31:39.116Z,2.13
2018-04-17T14:34:05.364Z,2.47
2018-04-17T14:36:31.608Z,2.67
2018-04-17T14:38:58.717Z,2.73
2018-04-17T14:41:24.961Z,2.00
2018-04-17T14:43:51.188Z,2.47
2018-04-17T14:46:17.500Z,1.90
2018-04-17T14:48:43.699Z,2.57
2018-04-17T14:51:09.943Z,2.30
2018-04-17T14:53:36.216Z,2.10
2018-04-17T14:56:02.844Z,1.60
2018-04-17T14:58:29.079Z,2.50
2018-04-17T15:00:56.289Z,2.67
2018-04-17T15:03:22.555Z,3.03
2018-04-17T15:05:48.769Z,2.13
2018-04-17T15:08:15.021Z,2.63
2018-04-17T15:10:41.292Z,2.70
2018-04-17T15:13:07.538Z,2.50
2018-04-17T15:15:33.819Z,3.13
2018-04-17T15:18:00.086Z,2.80
2018-04-17T15:20:26.303Z,3.00
2018-04-17T15:22:52.534Z,2.83
2018-04-17T15:25:18.785Z,2.20
2018-04-17T15:27:45.057Z,2.80
2018-04-17T15:30:11.315Z,2.03
2018-04-17T15:32:37.593Z,1.87
2018-04-17T15:35:03.830Z,1.93
2018-04-17T15:37:30.429Z,2.10
2018-04-17T15:39:56.751Z,2.10
2018-04-17T15:42:23.008Z,2.50
2018-04-17T15:44:49.305Z,2.23
2018-04-17T15:47:15.571Z,3.10
2018-04-17T15:49:42.477Z,2.90
2018-04-17T15:52:08.739Z,2.70
2018-04-17T15:54:34.956Z,4.40
2018-04-17T15:57:01.792Z,4.20
2018-04-17T15:59:28.053Z,4.30
2018-04-17T16:01:54.284Z,4.20
2018-04-17T16:04:20.569Z,5.13
2018-04-17T16:06:47.822Z,5.13
2018-04-17T16:09:14.129Z,4.40
2018-04-17T16:11:40.333Z,4.60
2018-04-17T16:14:06.947Z,4.40
2018-04-17T16:16:33.210Z,4.83
2018-04-17T16:19:01.478Z,5.17
2018-04-17T16:21:28.125Z,4.30
2018-04-17T16:23:54.328Z,4.47
2018-04-17T16:26:20.585Z,3.60
2018-04-17T16:28:46.819Z,4.10
2018-04-17T16:31:13.058Z,4.50
2018-04-17T16:33:39.274Z,5.50
2018-04-17T16:36:05.581Z,6.13
2018-04-17T16:38:31.820Z,6.77
2018-04-17T16:40:58.077Z,6.37
2018-04-17T16:43:24.292Z,5.37
2018-04-17T16:45:50.541Z,5.90
2018-04-17T16:48:16.759Z,6.47
2018-04-17T16:50:43.024Z,5.23
2018-04-17T16:53:09.283Z,5.07
2018-04-17T16:55:35.862Z,5.83
2018-04-17T16:58:02.059Z,6.90
2018-04-17T17:00:28.305Z,6.97
2018-04-17T17:02:55.161Z,6.67
2018-04-17T17:05:21.396Z,7.17
2018-04-17T17:07:47.627Z,5.83
2018-04-17T17:10:13.852Z,6.00
2018-04-17T17:12:40.083Z,6.53
2018-04-17T17:15:06.323Z,7.10
2018-04-17T17:17:32.587Z,6.60
2018-04-17T17:19:58.806Z,5.80
2018-04-17T17:22:25.427Z,6.43
2018-04-17T17:24:51.678Z,7.10
2018-04-17T17:27:18.289Z,7.53
2018-04-17T17:29:44.541Z,6.77
2018-04-17T17:32:11.218Z,6.73
2018-04-17T17:34:37.475Z,6.67
2018-04-17T17:37:03.700Z,7.00
2018-04-17T17:39:30.108Z,7.13
2018-04-17T17:41:56.352Z,7.20
2018-04-17T17:44:22.602Z,7.10
2018-04-17T17:46:48.859Z,6.20
2018-04-17T17:49:15.197Z,6.83
2018-04-17T17:51:41.837Z,6.80
2018-04-17T17:54:08.485Z,6.43
2018-04-17T17:56:34.958Z,4.97
2018-04-17T17:59:01.221Z,6.23
2018-04-17T18:01:27.951Z,5.97
2018-04-17T18:03:54.267Z,6.73
2018-04-17T18:06:20.527Z,5.50
2018-04-17T18:08:46.862Z,6.10
2018-04-17T18:11:13.541Z,5.80
2018-04-17T18:13:40.140Z,6.80
2018-04-17T18:16:06.745Z,6.40
2018-04-17T18:18:33.015Z,6.53
2018-04-17T18:20:59.257Z,5.70
2018-04-17T18:23:25.513Z,5.00
2018-04-17T18:25:51.781Z,5.73
2018-04-17T18:28:18.089Z,4.93
2018-04-17T18:30:44.511Z,5.03
2018-04-17T18:33:10.915Z,4.80
2018-04-17T18:35:37.216Z,4.90
2018-04-17T18:38:03.558Z,5.53
2018-04-17T18:40:29.794Z,5.43
2018-04-17T18:42:56.123Z,5.77
2018-04-17T18:45:22.377Z,4.77
2018-04-17T18:47:48.660Z,5.60
2018-04-17T18:50:15.766Z,5.63
2018-04-17T18:52:42.030Z,5.70
2018-04-17T18:55:08.281Z,5.60
2018-04-17T18:57:34.560Z,5.50
2018-04-17T19:00:01.450Z,5.50
2018-04-17T19:02:27.807Z,5.53
2018-04-17T19:04:54.117Z,5.33
2018-04-17T19:07:20.408Z,5.50
2018-04-17T19:09:46.717Z,5.80
2018-04-17T19:12:12.995Z,4.53
2018-04-17T19:14:39.267Z,5.13
2018-04-17T19:17:05.601Z,5.53
2018-04-17T19:19:31.874Z,5.20
2018-04-17T19:21:58.137Z,5.53
2018-04-17T19:24:24.398Z,6.43
2018-04-17T19:26:50.660Z,7.90
2018-04-17T19:29:17.381Z,7.63
2018-04-17T19:31:43.637Z,7.73
2018-04-17T19:34:09.943Z,7.90
2018-04-17T19:36:36.165Z,6.63
2018-04-17T19:39:02.488Z,7.63
2018-04-17T19:41:28.732Z,7.47
2018-04-17T19:43:55.045Z,7.10
2018-04-17T19:46:22.972Z,6.80
2018-04-17T19:48:49.271Z,6.80
2018-04-17T19:51:15.948Z,6.80
2018-04-17T19:53:42.798Z,6.63
2018-04-17T19:56:09.059Z,6.30
2018-04-17T19:58:35.298Z,7.53
2018-04-17T20:01:01.605Z,6.57
2018-04-17T20:03:27.835Z,5.90
2018-04-17T20:05:54.093Z,5.80
2018-04-17T20:08:20.748Z,6.57
2018-04-17T20:10:47.004Z,6.40
2018-04-17T20:13:13.257Z,6.60
2018-04-17T20:15:40.503Z,6.20
2018-04-17T20:18:06.805Z,7.03
2018-04-17T20:20:33.071Z,6.80
2018-04-17T20:22:59.377Z,7.27
2018-04-17T20:25:25.626Z,6.80
2018-04-17T20:27:51.895Z,7.10
2018-04-17T20:30:18.196Z,7.07
2018-04-17T20:32:45.079Z,7.13
2018-04-17T20:35:11.330Z,7.07
2018-04-17T20:37:37.602Z,6.50
2018-04-17T20:40:03.844Z,5.85
2018-04-17T20:42:30.669Z,6.40
2018-04-17T20:44:56.976Z,6.77
2018-04-17T20:47:23.212Z,7.78
2018-04-17T20:49:49.483Z,6.82
2018-04-17T20:52:15.750Z,6.18
2018-04-17T20:54:42.024Z,7.03
2018-04-17T20:57:08.427Z,6.87
2018-04-17T20:59:34.712Z,6.55
2018-04-17T21:02:01.017Z,6.57
2018-04-17T21:04:27.667Z,7.35
2018-04-17T21:06:53.894Z,7.10
2018-04-17T21:09:20.479Z,6.87
2018-04-17T21:11:46.769Z,7.05
2018-04-17T21:14:13.021Z,7.75
2018-04-17T21:16:39.264Z,7.22
2018-04-17T21:19:05.544Z,6.85
2018-04-17T21:21:31.769Z,6.80
2018-04-17T21:23:58.893Z,8.13
2018-04-17T21:26:26.124Z,8.02
2018-04-17T21:28:53.352Z,7.55
2018-04-17T21:31:19.552Z,8.35
2018-04-17T21:33:45.838Z,7.78
2018-04-17T21:36:12.048Z,8.73
2018-04-17T21:38:38.258Z,7.87
2018-04-17T21:41:05.267Z,7.95
2018-04-17T21:43:31.549Z,7.75
2018-04-17T21:45:57.783Z,8.90
2018-04-17T21:48:24.052Z,7.75
2018-04-17T21:50:50.301Z,8.20
2018-04-17T21:53:16.486Z,8.75
2018-04-17T21:55:42.782Z,8.82
2018-04-17T21:58:09.031Z,8.27
2018-04-17T22:00:35.329Z,8.93
2018-04-17T22:03:02.122Z,8.32
2018-04-17T22:05:28.375Z,7.30
2018-04-17T22:07:54.587Z,7.68
2018-04-17T22:10:20.807Z,8.30
2018-04-17T22:12:47.029Z,7.18
2018-04-17T22:15:13.275Z,8.10
2018-04-17T22:17:39.499Z,8.45
2018-04-17T22:20:05.750Z,8.27
2018-04-17T22:22:32.003Z,7.65
2018-04-17T22:24:58.246Z,7.93
2018-04-17T22:27:24.492Z,8.18
2018-04-17T22:29:50.762Z,8.23
2018-04-17T22:32:17.930Z,8.32
2018-04-17T22:34:44.155Z,8.30
2018-04-17T22:37:10.445Z,8.88
2018-04-17T22:39:36.712Z,7.78
2018-04-17T22:42:02.946Z,8.63
2018-04-17T22:44:29.199Z,8.30
2018-04-17T22:46:55.462Z,8.98
2018-04-17T22:49:21.700Z,9.50
2018-04-17T22:51:47.952Z,8.77
2018-04-17T22:54:14.563Z,9.23
2018-04-17T22:56:40.836Z,8.90
2018-04-17T22:59:07.095Z,8.65
2018-04-17T23:01:33.314Z,8.90
2018-04-17T23:03:59.536Z,8.70
2018-04-17T23:06:25.809Z,9.05
2018-04-17T23:08:52.059Z,8.15
2018-04-17T23:11:18.636Z,9.15
2018-04-17T23:13:44.863Z,8.77
2018-04-17T23:16:11.107Z,8.50
2018-04-17T23:18:37.321Z,8.65
2018-04-17T23:21:03.561Z,8.52
2018-04-17T23:23:29.784Z,10.02
2018-04-17T23:25:56.018Z,10.40
2018-04-17T23:28:22.252Z,9.50
2018-04-17T23:30:48.495Z,9.63
2018-04-17T23:33:15.246Z,11.05
2018-04-17T23:35:41.839Z,9.73
2018-04-17T23:38:08.087Z,9.95
2018-04-17T23:40:34.317Z,9.43
2018-04-17T23:43:00.573Z,9.23
2018-04-17T23:45:26.807Z,9.60
2018-04-17T23:47:53.070Z,10.23
2018-04-17T23:50:20.995Z,9.45
2018-04-17T23:52:48.484Z,9.25
2018-04-17T23:55:14.869Z,8.57
2018-04-17T23:57:41.095Z,9.30
